Time;durP1;ratioP1;P1;durP2;ratioP2;P2;SDS_P1;SDS_P2;PMS_P1;PMS_P2;Temp;Humidity;BMP_temperature;BMP_pressure;BME280_temperature;BME280_humidity;BME280_pressure;Samples;Min_cycle;Max_cycle;Signal;HPM_P1;HPM_P2
2023/01/10 00:02:18;;;;;;;1999.90;999.90;;;6.10;99.90;;;;;;5033644;28;20161;-70
2023/01/10 00:04:44;;;;;;;1999.90;999.90;;;6.10;99.90;;;;;;5033548;28;20659;-69
2023/01/10 00:07:09;;;;;;;1999.90;999.90;;;6.10;99.90;;;;;;5033477;28;20175;-70
2023/01/10 00:09:35;;;;;;;1999.90;999.90;;;6.10;99.90;;;;;;5033338;28;20176;-69
2023/01/10 00:14:45;;;;;;;1999.90;999.90;;;6.20;99.90;;;;;;5033377;28;20272;-69
2023/01/10 00:17:10;;;;;;;1999.90;999.90;;;6.20;99.90;;;;;;5033044;28;20557;-69
2023/01/10 00:19:36;;;;;;;1999.90;999.90;;;6.20;99.90;;;;;;5033158;28;20164;-69
2023/01/10 00:22:08;;;;;;;1999.90;999.90;;;6.20;99.90;;;;;;5033268;28;20248;-70
2023/01/10 00:24:33;;;;;;;1999.90;999.90;;;6.20;99.90;;;;;;5033259;28;20202;-69
2023/01/10 00:26:59;;;;;;;1999.90;999.90;;;6.30;99.90;;;;;;5032979;28;20411;-70
2023/01/10 00:29:27;;;;;;;1999.90;999.90;;;6.30;99.90;;;;;;5032973;28;20700;-69
2023/01/10 00:31:53;;;;;;;1999.90;999.90;;;6.20;99.90;;;;;;5033215;28;20535;-70
2023/01/10 00:34:19;;;;;;;1999.90;999.90;;;6.20;99.90;;;;;;5032939;28;20549;-70
2023/01/10 00:36:46;;;;;;;1999.90;999.90;;;6.30;99.90;;;;;;5032830;28;20455;-69
2023/01/10 00:39:13;;;;;;;1999.90;999.90;;;6.30;99.90;;;;;;5032682;28;20531;-69
2023/01/10 00:44:24;;;;;;;1999.90;999.90;;;6.30;99.90;;;;;;5033157;28;20454;-69
2023/01/10 00:46:51;;;;;;;1999.90;999.90;;;6.30;99.90;;;;;;5032716;28;20940;-70
2023/01/10 00:49:16;;;;;;;1999.90;999.90;;;6.30;99.90;;;;;;5032579;28;20399;-70
2023/01/10 00:51:42;;;;;;;1999.90;999.90;;;6.30;99.90;;;;;;5032790;28;20744;-70
2023/01/10 00:54:09;;;;;;;1999.90;999.90;;;6.40;99.90;;;;;;5032617;28;20188;-70
2023/01/10 00:56:35;;;;;;;1999.90;999.90;;;6.40;99.90;;;;;;5032528;28;20868;-70
2023/01/10 00:59:00;;;;;;;1999.90;999.90;;;6.40;99.90;;;;;;5032341;28;20403;-70
2023/01/10 01:01:26;;;;;;;1999.90;999.90;;;6.40;96.00;;;;;;5032578;28;20906;-69
2023/01/10 01:03:51;;;;;;;1999.90;999.90;;;6.30;92.10;;;;;;5032450;28;20307;-69
2023/01/10 01:06:18;;;;;;;1999.90;999.90;;;6.30;82.80;;;;;;5032325;28;20223;-69
2023/01/10 01:08:44;;;;;;;1999.90;999.90;;;6.20;76.90;;;;;;5032245;28;20415;-70
2023/01/10 01:11:09;;;;;;;1999.90;999.90;;;6.20;79.10;;;;;;5032421;28;20168;-70
2023/01/10 01:13:35;;;;;;;1999.90;999.90;;;6.20;99.90;;;;;;5032292;28;20173;-69
2023/01/10 01:16:01;;;;;;;1999.90;999.90;;;6.20;90.00;;;;;;5032130;28;20210;-69
2023/01/10 01:18:27;;;;;;;1999.90;999.90;;;6.20;93.60;;;;;;5031969;28;20191;-69
2023/01/10 01:20:55;;;;;;;1999.90;999.90;;;6.20;93.00;;;;;;5032247;28;20175;-70
2023/01/10 01:23:21;;;;;;;1999.90;999.90;;;6.20;91.60;;;;;;5032381;28;20462;-70
2023/01/10 01:25:53;;;;;;;1999.90;999.90;;;6.20;92.70;;;;;;5031612;28;20470;-69
2023/01/10 01:28:20;;;;;;;1999.90;999.90;;;6.20;91.10;;;;;;5031930;28;20415;-69
2023/01/10 01:30:47;;;;;;;1999.90;999.90;;;6.20;91.50;;;;;;5032291;28;20847;-70
2023/01/10 01:33:12;;;;;;;1999.90;999.90;;;6.20;79.70;;;;;;5032038;28;20494;-69
2023/01/10 01:35:42;;;;;;;1999.90;999.90;;;6.30;68.20;;;;;;5031867;28;20529;-69
2023/01/10 01:38:08;;;;;;;1999.90;999.90;;;6.30;62.60;;;;;;5031675;28;20302;-69
2023/01/10 01:40:35;;;;;;;1999.90;999.90;;;6.20;59.90;;;;;;5031999;28;20494;-69
2023/01/10 01:43:00;;;;;;;1999.90;999.90;;;6.20;63.50;;;;;;5031887;28;20204;-69
2023/01/10 01:45:34;;;;;;;1999.90;999.90;;;6.20;69.30;;;;;;5031889;28;20470;-69
2023/01/10 01:48:08;;;;;;;1999.90;999.90;;;6.20;69.10;;;;;;5031828;28;20418;-69
2023/01/10 01:51:04;;;;;;;1999.90;999.90;;;6.20;67.50;;;;;;5031895;28;20411;-70
2023/01/10 01:53:39;;;;;;;1999.90;999.90;;;6.10;86.20;;;;;;5030851;28;20935;-69
2023/01/10 01:56:31;;;;;;;1999.90;999.90;;;6.30;56.80;;;;;;5031550;28;20402;-69
2023/01/10 01:59:16;;;;;;;1999.90;999.90;;;6.30;45.30;;;;;;5026505;28;20423;-70
2023/01/10 02:01:45;;;;;;;1999.90;999.90;;;6.30;32.90;;;;;;5031888;28;20814;-70
2023/01/10 02:04:22;;;;;;;1999.90;999.90;;;6.20;28.10;;;;;;5031703;28;20426;-70
2023/01/10 02:06:51;;;;;;;1999.90;999.90;;;6.30;17.90;;;;;;5031694;28;20398;-71
2023/01/10 02:09:28;;;;;;;1999.90;999.90;;;6.20;16.10;;;;;;5031535;28;20419;-70
2023/01/10 02:11:55;;;;;;;1999.90;999.90;;;6.20;9.90;;;;;;5031750;28;20402;-71
2023/01/10 02:14:23;;;;;;;1999.90;999.90;;;6.10;11.30;;;;;;5031632;28;20484;-71
2023/01/10 02:16:49;;;;;;;1999.90;999.90;;;6.10;11.90;;;;;;5031269;28;20454;-70
2023/01/10 02:19:42;;;;;;;1999.90;999.90;;;6.10;8.00;;;;;;5031543;28;20943;-70
2023/01/10 02:22:26;;;;;;;1999.90;999.90;;;6.10;4.20;;;;;;5031645;28;20581;-71
2023/01/10 02:25:00;;;;;;;1999.90;999.90;;;6.10;1.90;;;;;;5031485;28;20419;-69
2023/01/10 02:27:54;;;;;;;1999.90;999.90;;;6.00;1.00;;;;;;5031358;28;20416;-69
2023/01/10 02:31:09;;;;;;;1999.90;999.90;;;6.00;1.00;;;;;;5031317;28;20408;-69
2023/01/10 02:34:17;;;;;;;1999.90;999.90;;;6.00;24.40;;;;;;5018976;28;20888;-69
2023/01/10 02:37:09;;;;;;;1999.90;999.90;;;6.00;7.10;;;;;;5031402;28;20545;-70
2023/01/10 02:39:57;;;;;;;1999.90;999.90;;;6.00;2.50;;;;;;5034515;28;20502;-70
2023/01/10 02:42:41;;;;;;;1999.90;999.90;;;6.00;1.00;;;;;;5035481;28;20402;-69
2023/01/10 02:45:33;;;;;;;1999.90;999.90;;;5.90;1.00;;;;;;5035136;28;20522;-69
2023/01/10 02:47:59;;;;;;;1999.90;999.90;;;6.00;1.00;;;;;;5030504;28;20423;-69
2023/01/10 02:50:42;;;;;;;1999.90;999.90;;;6.00;1.00;;;;;;5034770;28;20480;-69
2023/01/10 02:53:20;;;;;;;1999.90;999.90;;;6.00;1.00;;;;;;5035055;28;20552;-70
2023/01/10 02:55:55;;;;;;;1999.90;999.90;;;6.00;1.00;;;;;;5034827;28;20418;-69
2023/01/10 02:58:35;;;;;;;1999.90;999.90;;;6.00;1.00;;;;;;5034608;28;20532;-69
2023/01/10 03:01:41;;;;;;;1999.90;999.90;;;6.00;1.00;;;;;;5034821;28;20417;-69
2023/01/10 03:04:18;;;;;;;1999.90;999.90;;;6.00;1.00;;;;;;5011912;28;20453;-70
2023/01/10 03:07:19;;;;;;;1999.90;999.90;;;6.00;1.00;;;;;;5034674;28;20564;-69
2023/01/10 03:10:06;;;;;;;1999.90;999.90;;;5.90;1.00;;;;;;5034484;28;20407;-69
2023/01/10 03:12:56;;;;;;;1999.90;999.90;;;6.00;1.00;;;;;;5034610;28;20407;-69
2023/01/10 03:15:24;;;;;;;1999.90;999.90;;;5.90;1.00;;;;;;5034390;28;20955;-69
2023/01/10 03:17:54;;;;;;;1999.90;999.90;;;5.80;1.00;;;;;;5034260;28;20467;-69
2023/01/10 03:20:22;;;;;;;1999.90;999.90;;;6.00;1.00;;;;;;5034472;28;20456;-69
2023/01/10 03:22:48;;;;;;;1999.90;999.90;;;6.00;1.00;;;;;;5034425;28;20403;-70
2023/01/10 03:25:16;;;;;;;1999.90;999.90;;;6.00;1.00;;;;;;5034314;28;20470;-70
2023/01/10 03:27:58;;;;;;;1999.90;999.90;;;6.10;1.00;;;;;;5034183;28;20790;-69
2023/01/10 03:30:44;;;;;;;1999.90;999.90;;;6.00;1.00;;;;;;5034195;28;20403;-69
2023/01/10 03:33:13;;;;;;;1999.90;999.90;;;5.90;1.00;;;;;;5033952;28;20455;-69
2023/01/10 03:36:06;;;;;;;1999.90;999.90;;;5.90;1.00;;;;;;5034100;28;20796;-69
2023/01/10 03:38:52;;;;;;;1999.90;999.90;;;5.80;1.00;;;;;;5033897;28;20411;-69
2023/01/10 03:41:47;;;;;;;1999.90;999.90;;;5.80;1.00;;;;;;5034099;28;20755;-69
2023/01/10 03:44:43;;;;;;;1999.90;999.90;;;5.70;1.00;;;;;;5034153;28;21064;-69
2023/01/10 03:47:18;;;;;;;1999.90;999.90;;;5.70;1.00;;;;;;5033887;28;20869;-69
2023/01/10 03:49:48;;;;;;;1999.90;999.90;;;5.70;4.30;;;;;;5033431;28;20425;-70
2023/01/10 03:52:16;;;;;;;1999.90;999.90;;;5.70;7.60;;;;;;5033882;28;20466;-70
2023/01/10 03:54:43;;;;;;;1999.90;999.90;;;5.80;5.50;;;;;;5033719;28;20539;-70
2023/01/10 03:57:18;;;;;;;1999.90;999.90;;;5.80;1.20;;;;;;5033579;28;20447;-70
2023/01/10 03:59:44;;;;;;;1999.90;999.90;;;5.80;1.00;;;;;;5033665;28;20406;-69
2023/01/10 04:02:10;;;;;;;1999.90;999.90;;;5.80;1.00;;;;;;5033679;28;20395;-69
2023/01/10 04:04:35;;;;;;;1999.90;999.90;;;5.80;1.00;;;;;;5033554;28;20423;-69
2023/01/10 04:07:01;;;;;;;1999.90;999.90;;;5.80;1.00;;;;;;5033572;28;20494;-69
2023/01/10 04:09:27;;;;;;;1999.90;999.90;;;5.80;1.00;;;;;;5033252;28;20184;-69
2023/01/10 04:11:52;;;;;;;1999.90;999.90;;;5.90;1.00;;;;;;5033552;28;20173;-70
2023/01/10 04:14:18;;;;;;;1999.90;999.90;;;5.90;1.00;;;;;;5033419;28;20593;-69
2023/01/10 04:16:43;;;;;;;1999.90;999.90;;;5.80;1.00;;;;;;5033110;28;20192;-70
2023/01/10 04:19:09;;;;;;;1999.90;999.90;;;5.90;1.00;;;;;;5033276;28;20252;-69
2023/01/10 04:21:35;;;;;;;1999.90;999.90;;;5.90;1.00;;;;;;5033399;28;20684;-70
2023/01/10 04:24:00;;;;;;;1999.90;999.90;;;5.80;1.00;;;;;;5033140;28;20188;-70
2023/01/10 04:26:26;;;;;;;1999.90;999.90;;;5.80;1.00;;;;;;5033096;28;20251;-70
2023/01/10 04:28:51;;;;;;;1999.90;999.90;;;5.90;1.00;;;;;;5033218;28;20172;-70
2023/01/10 04:31:17;;;;;;;1999.90;999.90;;;5.90;1.00;;;;;;5033141;28;20183;-70
2023/01/10 04:33:42;;;;;;;1999.90;999.90;;;5.90;1.00;;;;;;5033021;28;20601;-70
2023/01/10 04:36:08;;;;;;;1999.90;999.90;;;5.90;1.00;;;;;;5032938;28;20188;-71
2023/01/10 04:38:34;;;;;;;1999.90;999.90;;;5.80;1.00;;;;;;5032681;28;20180;-71
2023/01/10 04:40:59;;;;;;;1999.90;999.90;;;5.90;1.00;;;;;;5033012;28;20595;-70
2023/01/10 04:43:25;;;;;;;1999.90;999.90;;;5.90;1.00;;;;;;5032909;28;20169;-71
2023/01/10 04:45:51;;;;;;;1999.90;999.90;;;5.90;1.00;;;;;;5032764;28;20219;-70
2023/01/10 04:48:17;;;;;;;1999.90;999.90;;;5.90;1.00;;;;;;5032680;28;20206;-71
2023/01/10 04:50:47;;;;;;;1999.90;999.90;;;5.90;1.00;;;;;;5032809;28;20489;-71
2023/01/10 04:53:13;;;;;;;1999.90;999.90;;;5.80;1.00;;;;;;5032732;28;20545;-71
2023/01/10 04:55:38;;;;;;;1999.90;999.90;;;5.80;1.00;;;;;;5032561;28;20510;-71
2023/01/10 04:58:04;;;;;;;1999.90;999.90;;;5.90;1.00;;;;;;5032469;28;20195;-68
2023/01/10 05:00:29;;;;;;;1999.90;999.90;;;5.90;1.00;;;;;;5031903;28;20174;-71
2023/01/10 05:02:56;;;;;;;1999.90;999.90;;;5.80;1.00;;;;;;5032637;28;20172;-71
2023/01/10 05:05:22;;;;;;;1999.90;999.90;;;5.90;1.00;;;;;;5032505;28;20220;-70
2023/01/10 05:07:47;;;;;;;1999.90;999.90;;;5.90;1.00;;;;;;5032305;28;20453;-70
2023/01/10 05:10:13;;;;;;;1999.90;999.90;;;5.80;1.00;;;;;;5032236;28;20782;-71
2023/01/10 05:12:39;;;;;;;1999.90;999.90;;;5.80;1.00;;;;;;5032321;28;20177;-70
2023/01/10 05:15:05;;;;;;;1999.90;999.90;;;5.80;1.00;;;;;;5032420;28;20191;-70
2023/01/10 05:17:31;;;;;;;1999.90;999.90;;;5.70;1.00;;;;;;5032119;28;20200;-71
2023/01/10 05:19:56;;;;;;;1999.90;999.90;;;5.70;1.00;;;;;;5032182;28;20395;-70
2023/01/10 05:22:22;;;;;;;1999.90;999.90;;;5.60;1.00;;;;;;5032129;28;20366;-70
2023/01/10 05:24:48;;;;;;;1999.90;999.90;;;5.50;1.00;;;;;;5032137;28;20192;-71
2023/01/10 05:27:14;;;;;;;1999.90;999.90;;;5.50;1.00;;;;;;5032009;28;20176;-70
2023/01/10 05:29:40;;;;;;;1999.90;999.90;;;5.50;1.00;;;;;;5031941;28;20421;-70
2023/01/10 05:32:06;;;;;;;1999.90;999.90;;;5.50;1.00;;;;;;5032216;28;20762;-70
2023/01/10 05:34:31;;;;;;;1999.90;999.90;;;5.50;1.00;;;;;;5033204;28;20430;-73
2023/01/10 05:36:57;;;;;;;1999.90;999.90;;;5.40;5.70;;;;;;5031841;28;20576;-71
2023/01/10 05:39:22;;;;;;;1999.90;999.90;;;5.40;6.30;;;;;;5031870;28;20165;-71
2023/01/10 05:41:48;;;;;;;1999.90;999.90;;;5.40;8.10;;;;;;5032004;28;20238;-71
2023/01/10 05:44:13;;;;;;;1999.90;999.90;;;5.40;4.90;;;;;;5031955;28;20264;-71
2023/01/10 05:46:39;;;;;;;1999.90;999.90;;;5.40;5.70;;;;;;5031725;28;20176;-71
2023/01/10 05:49:05;;;;;;;1999.90;999.90;;;5.40;8.30;;;;;;5031955;28;20164;-70
2023/01/10 05:51:30;;;;;;;1999.90;999.90;;;5.40;9.90;;;;;;5032117;28;20176;-70
2023/01/10 05:53:57;;;;;;;1999.90;999.90;;;5.30;15.60;;;;;;5032186;28;20227;-70
2023/01/10 05:56:23;;;;;;;1999.90;999.90;;;5.30;17.90;;;;;;5031955;28;20539;-70
2023/01/10 05:58:49;;;;;;;1999.90;999.90;;;5.30;24.00;;;;;;5031738;28;20406;-69
2023/01/10 06:01:14;;;;;;;1999.90;999.90;;;5.30;29.90;;;;;;5031842;28;20964;-69
2023/01/10 06:03:40;;;;;;;1999.90;999.90;;;5.20;52.80;;;;;;5031725;28;20169;-69
2023/01/10 06:06:06;;;;;;;1999.90;999.90;;;5.30;30.10;;;;;;5031552;28;20534;-70
2023/01/10 06:08:31;;;;;;;1999.90;999.90;;;5.30;31.10;;;;;;5031560;28;20168;-69
2023/01/10 06:10:57;;;;;;;1999.90;999.90;;;5.30;30.00;;;;;;5031684;28;20399;-69
2023/01/10 06:13:23;;;;;;;1999.90;999.90;;;5.30;28.30;;;;;;5034882;28;20165;-69
2023/01/10 06:15:49;;;;;;;1999.90;999.90;;;5.30;25.80;;;;;;5035568;28;20193;-69
2023/01/10 06:18:15;;;;;;;1999.90;999.90;;;5.40;23.40;;;;;;5035314;28;20204;-69
2023/01/10 06:20:42;;;;;;;1999.90;999.90;;;5.30;26.00;;;;;;5035487;28;20403;-69
2023/01/10 06:23:07;;;;;;;1999.90;999.90;;;5.30;26.80;;;;;;5035561;28;20888;-70
2023/01/10 06:25:38;;;;;;;1999.90;999.90;;;5.30;29.90;;;;;;5035487;28;20521;-70
2023/01/10 06:28:04;;;;;;;1999.90;999.90;;;5.30;31.80;;;;;;5035357;28;20184;-69
2023/01/10 06:30:30;;;;;;;1999.90;999.90;;;5.30;30.30;;;;;;5035315;28;20410;-69
2023/01/10 06:33:01;;;;;;;1999.90;999.90;;;5.30;25.90;;;;;;5035403;28;20548;-69
2023/01/10 06:35:27;;;;;;;1999.90;999.90;;;5.20;29.20;;;;;;5035157;28;20196;-69
2023/01/10 06:37:52;;;;;;;1999.90;999.90;;;5.20;35.80;;;;;;5035191;28;20817;-69
2023/01/10 06:40:18;;;;;;;1999.90;999.90;;;5.20;39.30;;;;;;5035522;28;20168;-70
2023/01/10 06:42:43;;;;;;;1999.90;999.90;;;5.20;42.40;;;;;;5036472;28;20192;-70
2023/01/10 06:45:10;;;;;;;1999.90;999.90;;;5.10;46.20;;;;;;5035447;28;20191;-70
2023/01/10 06:47:36;;;;;;;1999.90;999.90;;;5.10;54.30;;;;;;5035094;28;20168;-70
2023/01/10 06:50:03;;;;;;;1999.90;999.90;;;5.10;59.80;;;;;;5034947;28;20488;-71
2023/01/10 06:52:29;;;;;;;1999.90;999.90;;;5.10;60.90;;;;;;5035100;28;20453;-70
2023/01/10 06:54:54;;;;;;;1999.90;999.90;;;5.10;61.40;;;;;;5035004;28;20469;-70
2023/01/10 06:57:20;;;;;;;1999.90;999.90;;;5.10;57.60;;;;;;5034623;28;20443;-70
2023/01/10 06:59:46;;;;;;;1999.90;999.90;;;5.20;57.00;;;;;;5034790;28;20179;-70
2023/01/10 07:02:12;;;;;;;1999.90;999.90;;;5.20;49.10;;;;;;5034889;28;20403;-70
2023/01/10 07:04:37;;;;;;;1999.90;999.90;;;5.20;51.70;;;;;;5034713;28;20558;-70
2023/01/10 07:07:03;;;;;;;1999.90;999.90;;;5.10;46.00;;;;;;5034657;28;20168;-70
2023/01/10 07:09:29;;;;;;;1999.90;999.90;;;5.10;45.80;;;;;;5034600;28;20168;-70
2023/01/10 07:11:54;;;;;;;1999.90;999.90;;;5.10;49.70;;;;;;5034762;28;20180;-71
2023/01/10 07:14:20;;;;;;;1999.90;999.90;;;5.10;47.10;;;;;;5034577;28;20242;-70
2023/01/10 07:16:46;;;;;;;1999.90;999.90;;;5.00;58.40;;;;;;5034286;28;20196;-70
2023/01/10 07:19:16;;;;;;;1999.90;999.90;;;5.00;73.40;;;;;;5034307;28;20233;-70
2023/01/10 07:21:42;;;;;;;1999.90;999.90;;;5.00;69.60;;;;;;5034728;28;20196;-70
2023/01/10 07:24:08;;;;;;;1999.90;999.90;;;5.00;80.80;;;;;;5033710;28;20968;-69
2023/01/10 07:26:33;;;;;;;1999.90;999.90;;;5.00;90.60;;;;;;5034326;28;20412;-69
2023/01/10 07:28:59;;;;;;;1999.90;999.90;;;5.00;91.80;;;;;;5034119;28;20413;-70
2023/01/10 07:31:25;;;;;;;1999.90;999.90;;;5.00;91.30;;;;;;5034320;28;20234;-69
2023/01/10 07:33:51;;;;;;;1999.90;999.90;;;5.00;91.10;;;;;;5034004;28;20287;-69
2023/01/10 07:36:17;;;;;;;1999.90;999.90;;;5.10;93.40;;;;;;5034204;28;20169;-70
2023/01/10 07:38:43;;;;;;;1999.90;999.90;;;5.10;90.20;;;;;;5033962;28;20422;-69
2023/01/10 07:41:09;;;;;;;1999.90;999.90;;;5.00;90.70;;;;;;5034144;28;20771;-69
2023/01/10 07:43:35;;;;;;;1999.90;999.90;;;5.20;99.90;;;;;;5033955;28;20406;-69
2023/01/10 07:46:03;;;;;;;1999.90;999.90;;;5.10;92.20;;;;;;5033898;28;20408;-69
2023/01/10 07:48:29;;;;;;;1999.90;999.90;;;5.10;88.60;;;;;;5033698;28;20399;-69
2023/01/10 07:50:56;;;;;;;1999.90;999.90;;;5.10;90.70;;;;;;5034031;28;20439;-70
2023/01/10 07:53:22;;;;;;;1999.90;999.90;;;5.10;91.80;;;;;;5033809;28;20414;-69
2023/01/10 07:55:47;;;;;;;1999.90;999.90;;;5.10;90.70;;;;;;5033820;28;20431;-69
2023/01/10 07:58:13;;;;;;;1999.90;999.90;;;5.10;91.30;;;;;;5033968;28;20204;-70
2023/01/10 08:00:39;;;;;;;1999.90;999.90;;;5.20;87.20;;;;;;5033710;28;20171;-70
2023/01/10 08:03:05;;;;;;;1999.90;999.90;;;5.20;88.60;;;;;;5033660;28;20165;-70
2023/01/10 08:05:31;;;;;;;1999.90;999.90;;;5.20;82.60;;;;;;5033834;28;20451;-70
2023/01/10 08:08:02;;;;;;;1999.90;999.90;;;5.20;80.10;;;;;;5032519;28;20446;-70
2023/01/10 08:10:27;;;;;;;1999.90;999.90;;;5.20;81.20;;;;;;5033553;28;20774;-70
2023/01/10 08:12:53;;;;;;;1999.90;999.90;;;5.20;84.20;;;;;;5033713;28;20438;-70
2023/01/10 08:15:19;;;;;;;1999.90;999.90;;;5.30;76.80;;;;;;5033727;28;20749;-70
2023/01/10 08:17:44;;;;;;;1999.90;999.90;;;5.30;65.60;;;;;;5033180;28;20540;-69
2023/01/10 08:20:10;;;;;;;1999.90;999.90;;;5.30;61.00;;;;;;5033205;28;20263;-69
2023/01/10 08:22:36;;;;;;;1999.90;999.90;;;5.30;52.40;;;;;;5033392;28;20160;-68
2023/01/10 08:25:02;;;;;;;1999.90;999.90;;;5.40;53.40;;;;;;5033298;28;20422;-69
2023/01/10 08:27:27;;;;;;;1999.90;999.90;;;5.40;54.00;;;;;;5033221;28;20635;-70
2023/01/10 08:29:53;;;;;;;1999.90;999.90;;;5.40;50.90;;;;;;5032904;28;20415;-71
2023/01/10 08:32:18;;;;;;;1999.90;999.90;;;5.50;47.10;;;;;;5033214;28;20176;-70
2023/01/10 08:34:44;;;;;;;1999.90;999.90;;;5.50;44.90;;;;;;5032797;28;20192;-70
2023/01/10 08:37:13;;;;;;;1999.90;999.90;;;5.50;37.30;;;;;;5032183;28;20196;-71
2023/01/10 08:39:39;;;;;;;1999.90;999.90;;;5.50;34.60;;;;;;5032850;28;20213;-70
2023/01/10 08:42:04;;;;;;;1999.90;999.90;;;5.60;30.80;;;;;;5033048;28;20404;-71
2023/01/10 08:44:30;;;;;;;1999.90;999.90;;;5.60;26.50;;;;;;5033083;28;20423;-70
2023/01/10 08:46:56;;;;;;;1999.90;999.90;;;5.60;22.50;;;;;;5032937;28;20247;-70
2023/01/10 08:49:22;;;;;;;1999.90;999.90;;;5.60;23.40;;;;;;5032754;28;20250;-70
2023/01/10 08:51:48;;;;;;;1999.90;999.90;;;5.70;19.60;;;;;;5032948;28;20172;-70
2023/01/10 08:54:13;;;;;;;1999.90;999.90;;;5.70;12.50;;;;;;5032682;28;20427;-71
2023/01/10 08:56:39;;;;;;;1999.90;999.90;;;5.80;8.90;;;;;;5032589;28;20188;-71
2023/01/10 08:59:06;;;;;;;1999.90;999.90;;;5.80;1.00;;;;;;5032444;28;20222;-70
2023/01/10 09:01:31;;;;;;;1999.90;999.90;;;5.90;1.00;;;;;;5032615;28;20446;-70
2023/01/10 09:03:57;;;;;;;1999.90;999.90;;;6.00;1.00;;;;;;5032459;28;20451;-70
2023/01/10 09:06:23;;;;;;;1999.90;999.90;;;6.00;1.00;;;;;;5032469;28;20169;-70
2023/01/10 09:08:49;;;;;;;1999.90;999.90;;;6.00;1.00;;;;;;5032499;28;20168;-70
2023/01/10 09:11:14;;;;;;;1999.90;999.90;;;6.00;1.00;;;;;;5032627;28;20920;-70
2023/01/10 09:13:41;;;;;;;1999.90;999.90;;;6.10;1.00;;;;;;5032279;28;20403;-70
2023/01/10 09:16:07;;;;;;;1999.90;999.90;;;6.20;1.00;;;;;;5032507;28;20164;-70
2023/01/10 09:18:33;;;;;;;1999.90;999.90;;;6.30;1.00;;;;;;5032049;28;20462;-70
2023/01/10 09:20:59;;;;;;;1999.90;999.90;;;6.30;1.00;;;;;;5032294;28;20399;-70
2023/01/10 09:23:25;;;;;;;1999.90;999.90;;;6.40;1.00;;;;;;5032499;28;20195;-70
2023/01/10 09:25:52;;;;;;;1999.90;999.90;;;6.50;1.00;;;;;;5032140;28;20434;-70
2023/01/10 09:28:19;;;;;;;1999.90;999.90;;;6.60;1.00;;;;;;5031948;28;20783;-70
2023/01/10 09:30:45;;;;;;;1999.90;999.90;;;6.70;1.00;;;;;;5032211;28;20407;-70
2023/01/10 09:33:11;;;;;;;1999.90;999.90;;;6.80;1.00;;;;;;5032103;28;20564;-70
2023/01/10 09:35:39;;;;;;;1999.90;999.90;;;6.80;1.00;;;;;;5032076;28;20419;-70
2023/01/10 09:38:06;;;;;;;1999.90;999.90;;;7.00;1.00;;;;;;5031820;28;20457;-70
2023/01/10 09:40:40;;;;;;;1999.90;999.90;;;6.90;1.00;;;;;;5032149;28;20414;-70
2023/01/10 09:43:14;;;;;;;1999.90;999.90;;;6.90;1.00;;;;;;5031960;28;20398;-70
2023/01/10 09:45:57;;;;;;;1999.90;999.90;;;7.00;1.00;;;;;;5031585;28;20632;-70
2023/01/10 09:48:37;;;;;;;1999.90;999.90;;;7.10;1.00;;;;;;5031434;28;20414;-69
2023/01/10 09:51:32;;;;;;;1999.90;999.90;;;7.20;1.00;;;;;;5031886;28;20749;-69
2023/01/10 09:54:01;;;;;;;1999.90;999.90;;;7.20;99.90;;;;;;5031904;28;20454;-69
2023/01/10 09:56:28;;;;;;;1999.90;999.90;;;7.20;99.90;;;;;;5031713;28;20486;-70
2023/01/10 09:58:55;;;;;;;1999.90;999.90;;;7.30;99.90;;;;;;5031686;28;20438;-69
2023/01/10 10:01:28;;;;;;;1999.90;999.90;;;7.30;99.90;;;;;;5031816;28;20498;-69
2023/01/10 10:04:15;;;;;;;1999.90;999.90;;;7.50;99.90;;;;;;5031811;28;20537;-69
2023/01/10 10:06:41;;;;;;;1999.90;999.90;;;7.60;99.90;;;;;;5031826;28;20411;-70
2023/01/10 10:09:13;;;;;;;1999.90;999.90;;;7.80;99.90;;;;;;5031594;28;20929;-69
2023/01/10 10:11:58;;;;;;;1999.90;999.90;;;7.80;1.00;;;;;;5031679;28;20539;-69
2023/01/10 10:15:08;;;;;;;1999.90;999.90;;;8.00;1.00;;;;;;5031532;28;20415;-69
2023/01/10 10:17:49;;;;;;;1999.90;999.90;;;8.00;99.90;;;;;;4999195;28;21013;-69
2023/01/10 10:20:34;;;;;;;1999.90;999.90;;;8.10;99.90;;;;;;5031204;28;20408;-69
2023/01/10 10:23:14;;;;;;;1999.90;999.90;;;8.20;99.90;;;;;;5028429;28;20407;-69
2023/01/10 10:25:43;;;;;;;1999.90;999.90;;;8.30;1.00;;;;;;5031201;28;20791;-70
2023/01/10 10:29:05;;;;;;;1999.90;999.90;;;8.40;1.00;;;;;;5028796;28;20419;-70
2023/01/10 10:32:14;;;;;;;1999.90;999.90;;;8.50;1.00;;;;;;4988363;28;20421;-71
2023/01/10 10:34:56;;;;;;;1999.90;999.90;;;8.50;99.90;;;;;;4969208;28;20475;-70
2023/01/10 10:37:32;;;;;;;1999.90;999.90;;;8.50;99.90;;;;;;4952101;28;20472;-71
2023/01/10 10:40:20;;;;;;;1999.90;999.90;;;8.40;1.00;;;;;;5011093;28;20506;-71
2023/01/10 10:43:11;;;;;;;1999.90;999.90;;;8.70;1.00;;;;;;5030199;28;20762;-70
2023/01/10 10:45:57;;;;;;;1999.90;999.90;;;8.60;49.40;;;;;;5030263;28;20435;-70
2023/01/10 10:48:28;;;;;;;1999.90;999.90;;;8.70;99.90;;;;;;5030740;28;20438;-69
2023/01/10 10:50:54;;;;;;;1999.90;999.90;;;8.90;1.00;;;;;;5030168;28;20402;-71
2023/01/10 10:53:20;;;;;;;1999.90;999.90;;;8.90;1.00;;;;;;5030522;28;20401;-72
2023/01/10 10:55:46;;;;;;;1999.90;999.90;;;9.00;1.00;;;;;;5030672;28;20229;-70
2023/01/10 10:58:13;;;;;;;1999.90;999.90;;;9.20;99.90;;;;;;5030688;28;20337;-69
2023/01/10 11:00:40;;;;;;;1999.90;999.90;;;9.20;1.00;;;;;;5034407;28;20487;-69
2023/01/10 11:03:29;;;;;;;1999.90;999.90;;;9.30;99.90;;;;;;5034667;28;20405;-69
2023/01/10 11:05:55;;;;;;;1999.90;999.90;;;9.30;99.90;;;;;;5034729;28;20431;-69
2023/01/10 11:08:22;;;;;;;1999.90;999.90;;;9.60;99.90;;;;;;5034466;28;20413;-69
2023/01/10 11:10:52;;;;;;;1999.90;999.90;;;9.40;99.90;;;;;;5034801;28;20417;-69
2023/01/10 11:13:32;;;;;;;1999.90;999.90;;;9.40;1.00;;;;;;5034585;28;20410;-69
2023/01/10 11:16:00;;;;;;;1999.90;999.90;;;9.50;99.90;;;;;;5034574;28;20401;-69
2023/01/10 11:18:28;;;;;;;1999.90;999.90;;;9.50;99.90;;;;;;5034242;28;20465;-69
2023/01/10 11:21:01;;;;;;;1999.90;999.90;;;9.60;1.00;;;;;;5034535;28;20401;-69
2023/01/10 11:23:38;;;;;;;1999.90;999.90;;;9.60;99.90;;;;;;5033926;28;20422;-71
2023/01/10 11:26:07;;;;;;;1999.90;999.90;;;9.80;1.00;;;;;;5052168;28;20410;-70
2023/01/10 11:28:33;;;;;;;1999.90;999.90;;;9.90;1.00;;;;;;5049398;28;20478;-71
2023/01/10 11:30:59;;;;;;;1999.90;999.90;;;9.90;1.00;;;;;;5048373;28;20433;-71
2023/01/10 11:33:29;;;;;;;1999.90;999.90;;;10.10;99.90;;;;;;5035798;28;20409;-70
2023/01/10 11:36:06;;;;;;;1999.90;999.90;;;10.20;99.90;;;;;;5034146;28;20413;-71
2023/01/10 11:38:33;;;;;;;1999.90;999.90;;;10.20;99.90;;;;;;5045545;28;20460;-71
2023/01/10 11:41:17;;;;;;;1999.90;999.90;;;10.20;1.00;;;;;;5036502;28;20777;-70
2023/01/10 11:43:43;;;;;;;1999.90;999.90;;;10.20;99.90;;;;;;5033954;28;20671;-69
2023/01/10 11:46:16;;;;;;;1999.90;999.90;;;10.20;1.00;;;;;;5033858;28;20401;-69
2023/01/10 11:48:45;;;;;;;1999.90;999.90;;;10.20;74.20;;;;;;5033708;28;20637;-70
2023/01/10 11:51:44;;;;;;;1999.90;999.90;;;10.10;99.90;;;;;;5033982;28;20474;-69
2023/01/10 11:54:16;;;;;;;1999.90;999.90;;;10.00;99.90;;;;;;5035049;28;20453;-71
2023/01/10 11:56:42;;;;;;;1999.90;999.90;;;;;;;;;;5044202;28;20468;-69
2023/01/10 11:59:16;;;;;;;1999.90;999.90;;;10.20;1.00;;;;;;5047573;28;20451;-70
2023/01/10 12:01:52;;;;;;;1999.90;999.90;;;10.20;1.00;;;;;;5047244;28;20809;-70
2023/01/10 12:04:19;;;;;;;1999.90;999.90;;;10.20;1.00;;;;;;5046228;28;20453;-70
2023/01/10 12:07:08;;;;;;;1999.90;999.90;;;10.50;1.00;;;;;;5029450;28;20412;-70
2023/01/10 12:09:41;;;;;;;1999.90;999.90;;;10.40;1.00;;;;;;5044985;28;20421;-70
2023/01/10 12:12:16;;;;;;;1999.90;999.90;;;10.40;1.00;;;;;;5045828;28;20420;-70
2023/01/10 12:14:42;;;;;;;1999.90;999.90;;;10.30;1.00;;;;;;5046087;28;20430;-70
2023/01/10 12:17:30;;;;;;;1999.90;999.90;;;10.10;1.00;;;;;;5044058;28;20524;-70
2023/01/10 12:19:59;;;;;;;1999.90;999.90;;;10.10;1.00;;;;;;5045978;28;20217;-70
2023/01/10 12:22:44;;;;;;;1999.90;999.90;;;10.10;77.30;;;;;;5045581;28;20408;-70
2023/01/10 12:25:35;;;;;;;1999.90;999.90;;;9.90;1.00;;;;;;5033288;28;20482;-69
2023/01/10 12:28:01;;;;;;;1999.90;999.90;;;9.90;99.90;;;;;;5033534;28;20404;-69
2023/01/10 12:30:33;;;;;;;1999.90;999.90;;;9.70;99.90;;;;;;5032994;28;20428;-69
2023/01/10 12:33:12;;;;;;;1999.90;999.90;;;9.60;1.00;;;;;;5033268;28;20181;-69
2023/01/10 12:36:07;;;;;;;1999.90;999.90;;;9.50;1.00;;;;;;5033089;28;20443;-69